Time;durP1;ratioP1;P1;durP2;ratioP2;P2;SDS_P1;SDS_P2;PMS_P1;PMS_P2;Temp;Humidity;BMP_temperature;BMP_pressure;BME280_temperature;BME280_humidity;BME280_pressure;Samples;Min_cycle;Max_cycle;Signal;HPM_P1;HPM_P2
2022/11/28 00:01:22;;;;;;;12.97;9.10;;;15.80;59.90;;;;;;5067954;28;20480;-80
2022/11/28 00:03:50;;;;;;;12.70;8.80;;;15.80;60.10;;;;;;5076673;28;20454;-82
2022/11/28 00:06:18;;;;;;;11.50;8.20;;;15.80;60.10;;;;;;5084975;28;20481;-81
2022/11/28 00:08:46;;;;;;;11.17;8.27;;;15.80;60.20;;;;;;5078746;28;20506;-81
2022/11/28 00:11:16;;;;;;;11.27;8.33;;;15.80;60.30;;;;;;5065589;28;20469;-80
2022/11/28 00:13:44;;;;;;;12.80;8.77;;;15.90;60.30;;;;;;5070280;28;20452;-80
2022/11/28 00:16:14;;;;;;;12.17;8.97;;;15.80;60.30;;;;;;5074662;28;20462;-80
2022/11/28 00:18:42;;;;;;;13.20;8.47;;;15.90;60.40;;;;;;5074041;28;20452;-80
2022/11/28 00:21:11;;;;;;;14.03;8.87;;;15.90;60.50;;;;;;5074750;28;20436;-81
2022/11/28 00:23:40;;;;;;;10.17;8.00;;;15.90;60.60;;;;;;5074413;28;20551;-79
2022/11/28 00:26:09;;;;;;;11.60;8.03;;;15.90;60.60;;;;;;5072484;28;20477;-81
2022/11/28 00:28:38;;;;;;;13.30;7.30;;;15.90;60.60;;;;;;5074295;28;20542;-81
2022/11/28 00:31:06;;;;;;;12.33;8.57;;;15.90;60.70;;;;;;5073671;28;20469;-80
2022/11/28 00:33:34;;;;;;;11.53;7.87;;;15.90;60.70;;;;;;5070627;28;20454;-81
2022/11/28 00:36:03;;;;;;;11.53;8.13;;;15.90;60.70;;;;;;5065940;28;20485;-81
2022/11/28 00:38:31;;;;;;;11.23;7.60;;;15.90;60.70;;;;;;5067252;28;20461;-81
2022/11/28 00:41:00;;;;;;;12.57;7.87;;;15.90;60.80;;;;;;5072913;28;20434;-81
2022/11/28 00:43:28;;;;;;;8.97;7.03;;;15.90;60.90;;;;;;5063025;28;20447;-81
2022/11/28 00:45:58;;;;;;;9.90;7.20;;;15.90;60.90;;;;;;5068720;28;20469;-82
2022/11/28 00:48:26;;;;;;;9.87;7.40;;;15.90;60.90;;;;;;5073899;28;20550;-82
2022/11/28 00:50:54;;;;;;;9.47;7.90;;;15.90;61.00;;;;;;5071223;28;20467;-82
2022/11/28 00:53:22;;;;;;;10.73;7.27;;;15.90;61.10;;;;;;5066197;28;20464;-81
2022/11/28 00:55:50;;;;;;;8.37;6.53;;;15.90;61.10;;;;;;5074283;28;20461;-81
2022/11/28 00:58:18;;;;;;;10.60;7.30;;;15.90;61.00;;;;;;5071812;28;20450;-82
2022/11/28 01:00:46;;;;;;;8.83;6.90;;;15.90;61.10;;;;;;5072027;28;20454;-81
2022/11/28 01:03:15;;;;;;;10.70;7.53;;;15.90;61.00;;;;;;5075671;28;20484;-81
2022/11/28 01:05:43;;;;;;;9.63;7.07;;;15.90;61.10;;;;;;5072765;28;20450;-82
2022/11/28 01:08:11;;;;;;;10.30;7.20;;;15.90;61.10;;;;;;5074337;28;20450;-82
2022/11/28 01:10:41;;;;;;;9.60;7.30;;;15.90;61.20;;;;;;5070106;28;20460;-81
2022/11/28 01:13:09;;;;;;;8.47;6.43;;;15.90;61.10;;;;;;5074455;28;20473;-81
2022/11/28 01:15:39;;;;;;;8.07;6.57;;;15.90;61.20;;;;;;5073988;28;20457;-81
2022/11/28 01:18:07;;;;;;;8.00;6.60;;;15.90;61.20;;;;;;5069475;28;20565;-80
2022/11/28 01:20:37;;;;;;;9.43;6.53;;;15.90;61.20;;;;;;5074455;28;20457;-81
2022/11/28 01:23:05;;;;;;;9.30;6.80;;;15.90;61.00;;;;;;5068188;28;20430;-81
2022/11/28 01:25:32;;;;;;;9.00;6.40;;;15.90;61.10;;;;;;5067107;28;20541;-80
2022/11/28 01:28:01;;;;;;;9.87;6.60;;;15.90;61.20;;;;;;5074443;28;20952;-81
2022/11/28 01:30:29;;;;;;;8.00;6.40;;;15.90;61.20;;;;;;5065887;28;20437;-80
2022/11/28 01:32:57;;;;;;;7.53;6.50;;;15.90;61.20;;;;;;5074945;28;20509;-81
2022/11/28 01:35:25;;;;;;;7.87;6.40;;;15.90;61.10;;;;;;5066015;28;20450;-81
2022/11/28 01:37:55;;;;;;;11.97;6.10;;;15.90;61.10;;;;;;5067314;28;20478;-81
2022/11/28 01:40:23;;;;;;;9.33;6.13;;;15.90;61.10;;;;;;5064732;28;20446;-80
2022/11/28 01:42:52;;;;;;;8.07;6.40;;;15.90;61.10;;;;;;5067719;28;20956;-81
2022/11/28 01:45:21;;;;;;;7.50;6.40;;;15.90;61.00;;;;;;5064116;28;20460;-81
2022/11/28 01:47:49;;;;;;;7.80;5.80;;;15.90;61.10;;;;;;5072891;28;20462;-81
2022/11/28 01:50:17;;;;;;;8.23;6.00;;;15.90;61.20;;;;;;5067927;28;20457;-81
2022/11/28 01:52:46;;;;;;;6.20;5.60;;;15.90;61.30;;;;;;5072216;28;20479;-81
2022/11/28 01:55:17;;;;;;;13.63;6.70;;;15.90;61.20;;;;;;5073697;28;20453;-80
2022/11/28 01:57:45;;;;;;;7.00;5.90;;;15.90;61.20;;;;;;5066043;28;20480;-80
2022/11/28 02:00:14;;;;;;;8.63;6.20;;;15.90;61.20;;;;;;5064356;28;20461;-80
2022/11/28 02:02:45;;;;;;;6.33;5.67;;;15.90;61.20;;;;;;5066082;28;20448;-79
2022/11/28 02:05:13;;;;;;;8.53;5.60;;;15.90;61.30;;;;;;5068345;28;20445;-81
2022/11/28 02:07:41;;;;;;;6.27;5.63;;;15.90;61.30;;;;;;5071993;28;20473;-81
2022/11/28 02:10:10;;;;;;;8.03;5.93;;;15.90;61.40;;;;;;5066836;28;20450;-81
2022/11/28 02:12:50;;;;;;;6.43;5.73;;;15.90;61.40;;;;;;5077148;28;20469;-81
2022/11/28 02:15:24;;;;;;;9.10;5.87;;;15.90;61.10;;;;;;5073128;28;20453;-81
2022/11/28 02:18:06;;;;;;;7.50;5.97;;;15.90;61.30;;;;;;5073356;28;20470;-81
2022/11/28 02:20:56;;;;;;;7.17;6.27;;;15.90;61.30;;;;;;5075630;28;20449;-81
2022/11/28 02:23:25;;;;;;;6.53;5.30;;;15.90;61.30;;;;;;5073631;28;20446;-81
2022/11/28 02:26:06;;;;;;;7.30;5.33;;;15.90;61.20;;;;;;5074434;28;20481;-81
2022/11/28 02:29:07;;;;;;;6.77;5.87;;;15.90;61.30;;;;;;5069810;28;20453;-80
2022/11/28 02:31:53;;;;;;;6.13;5.53;;;15.90;61.20;;;;;;5068922;28;20445;-81
2022/11/28 02:34:23;;;;;;;7.50;5.70;;;15.90;61.30;;;;;;5076192;28;20452;-81
2022/11/28 02:36:51;;;;;;;6.73;5.87;;;15.80;61.40;;;;;;5076972;28;20473;-81
2022/11/28 02:39:24;;;;;;;9.23;5.90;;;15.80;61.30;;;;;;5076075;28;20449;-81
2022/11/28 02:41:54;;;;;;;5.93;5.30;;;15.90;61.40;;;;;;5067076;28;20456;-81
2022/11/28 02:44:24;;;;;;;6.50;5.30;;;15.90;61.30;;;;;;5067408;28;20461;-81
2022/11/28 02:46:56;;;;;;;6.30;5.70;;;15.90;61.20;;;;;;5074865;28;20476;-81
2022/11/28 02:49:27;;;;;;;6.93;5.60;;;15.80;61.30;;;;;;5073846;28;20441;-81
2022/11/28 02:51:56;;;;;;;6.50;5.37;;;15.90;61.40;;;;;;5066652;28;20458;-81
2022/11/28 02:54:25;;;;;;;5.93;5.17;;;15.80;61.00;;;;;;5070567;28;20456;-81
2022/11/28 02:56:53;;;;;;;6.03;4.97;;;15.80;61.20;;;;;;5072528;28;20477;-82
2022/11/28 02:59:29;;;;;;;5.70;4.90;;;15.90;61.10;;;;;;5073553;28;20462;-81
2022/11/28 03:01:59;;;;;;;6.60;5.40;;;15.90;61.20;;;;;;5070816;28;20456;-81
2022/11/28 03:04:31;;;;;;;6.80;5.27;;;15.80;61.10;;;;;;5068864;28;20469;-80
2022/11/28 03:07:03;;;;;;;6.27;5.30;;;15.80;61.10;;;;;;5068837;28;20477;-81
2022/11/28 03:09:55;;;;;;;6.03;5.10;;;15.80;61.20;;;;;;5062156;28;20442;-81
2022/11/28 03:12:26;;;;;;;5.73;5.13;;;15.80;61.00;;;;;;5073004;28;20471;-81
2022/11/28 03:14:55;;;;;;;5.23;4.73;;;15.80;61.10;;;;;;5075500;28;20445;-81
2022/11/28 03:17:30;;;;;;;5.77;4.70;;;15.80;61.00;;;;;;5074862;28;20477;-81
2022/11/28 03:20:03;;;;;;;7.03;5.60;;;15.80;61.20;;;;;;5075087;28;20440;-81
2022/11/28 03:22:37;;;;;;;5.70;5.10;;;15.80;61.10;;;;;;5062483;28;20441;-81
2022/11/28 03:25:10;;;;;;;6.53;5.50;;;15.80;61.00;;;;;;5076233;28;20436;-81
2022/11/28 03:27:38;;;;;;;5.33;4.63;;;15.80;61.00;;;;;;5074031;28;20476;-80
2022/11/28 03:30:10;;;;;;;6.70;5.20;;;15.80;61.20;;;;;;5074918;28;20487;-81
2022/11/28 03:32:39;;;;;;;5.60;4.40;;;15.80;61.00;;;;;;5073358;28;20457;-81
2022/11/28 03:35:10;;;;;;;5.17;4.67;;;15.80;61.10;;;;;;5059188;28;20447;-81
2022/11/28 03:37:40;;;;;;;5.37;4.47;;;15.80;61.10;;;;;;5069012;28;20458;-81
2022/11/28 03:40:10;;;;;;;5.63;4.67;;;15.80;60.80;;;;;;5074936;28;20976;-81
2022/11/28 03:42:40;;;;;;;5.20;4.53;;;15.80;60.90;;;;;;5073130;28;20446;-80
2022/11/28 03:45:09;;;;;;;5.90;5.10;;;15.80;60.90;;;;;;5067130;28;20454;-81
2022/11/28 03:47:40;;;;;;;4.47;4.07;;;15.80;60.80;;;;;;5065455;28;20477;-81
2022/11/28 03:50:11;;;;;;;5.23;4.73;;;15.80;60.80;;;;;;5074789;28;20464;-81
2022/11/28 03:52:41;;;;;;;5.17;4.67;;;15.80;60.90;;;;;;5064416;28;20482;-81
2022/11/28 03:55:11;;;;;;;6.60;4.43;;;15.80;60.90;;;;;;5066334;28;20449;-81
2022/11/28 03:57:41;;;;;;;4.67;4.27;;;15.70;60.90;;;;;;5070950;28;20474;-81
2022/11/28 04:00:11;;;;;;;4.90;4.50;;;15.70;60.70;;;;;;5074180;28;20515;-81
2022/11/28 04:02:44;;;;;;;4.60;4.20;;;15.80;60.90;;;;;;5064104;28;20454;-81
2022/11/28 04:05:17;;;;;;;5.60;4.80;;;15.80;60.80;;;;;;5065345;28;20504;-80
2022/11/28 04:07:46;;;;;;;6.10;4.73;;;15.80;60.70;;;;;;5072867;28;20461;-80
2022/11/28 04:10:17;;;;;;;4.67;4.27;;;15.80;60.70;;;;;;5071693;28;20532;-80
2022/11/28 04:12:53;;;;;;;4.33;3.93;;;15.80;60.70;;;;;;5063246;28;20447;-81
2022/11/28 04:15:25;;;;;;;5.20;4.70;;;15.80;60.60;;;;;;5073340;28;20452;-80
2022/11/28 04:17:57;;;;;;;6.07;4.90;;;15.80;60.70;;;;;;5067917;28;20482;-80
2022/11/28 04:20:29;;;;;;;5.10;4.60;;;15.80;60.80;;;;;;5076320;28;20446;-80
2022/11/28 04:23:01;;;;;;;4.60;4.20;;;15.80;60.60;;;;;;5069246;28;20445;-80
2022/11/28 04:25:29;;;;;;;5.23;4.33;;;15.80;60.50;;;;;;5075705;28;20456;-80
2022/11/28 04:28:06;;;;;;;6.90;5.13;;;15.80;60.40;;;;;;5074514;28;20484;-82
2022/11/28 04:30:33;;;;;;;5.37;4.50;;;15.80;60.50;;;;;;5074207;28;20457;-81
2022/11/28 04:33:05;;;;;;;4.43;4.03;;;15.80;60.40;;;;;;5074509;28;20470;-81
2022/11/28 04:35:35;;;;;;;4.67;4.27;;;15.80;60.40;;;;;;5065827;28;20464;-81
2022/11/28 04:38:04;;;;;;;5.10;4.60;;;15.80;60.30;;;;;;5085625;28;20442;-81
2022/11/28 04:40:33;;;;;;;4.60;4.10;;;15.80;60.50;;;;;;5089517;28;20446;-82
2022/11/28 04:43:02;;;;;;;4.60;4.20;;;15.80;60.30;;;;;;5088395;28;20453;-82
2022/11/28 04:45:32;;;;;;;7.40;5.27;;;15.80;60.40;;;;;;5079240;28;20450;-81
2022/11/28 04:48:00;;;;;;;4.70;4.30;;;15.80;60.30;;;;;;5078495;28;20457;-81
2022/11/28 04:50:31;;;;;;;4.43;4.03;;;15.80;60.20;;;;;;5079110;28;20470;-81
2022/11/28 04:53:01;;;;;;;4.97;4.50;;;15.80;60.30;;;;;;5088908;28;20441;-82
2022/11/28 04:55:32;;;;;;;6.20;3.80;;;15.80;60.40;;;;;;5084271;28;20445;-81
2022/11/28 04:58:03;;;;;;;5.10;4.27;;;15.80;60.20;;;;;;5080002;28;20445;-81
2022/11/28 05:00:32;;;;;;;4.33;4.03;;;15.80;60.20;;;;;;5090069;28;20442;-82
2022/11/28 05:03:01;;;;;;;4.50;4.10;;;15.80;60.10;;;;;;5089335;28;20449;-81
2022/11/28 05:05:30;;;;;;;4.33;3.93;;;15.80;60.10;;;;;;5088334;28;20457;-81
2022/11/28 05:07:58;;;;;;;4.87;4.40;;;15.80;60.10;;;;;;5086165;28;20468;-82
2022/11/28 05:10:26;;;;;;;4.97;4.20;;;15.80;60.10;;;;;;5087530;28;20442;-81
2022/11/28 05:12:53;;;;;;;5.13;4.60;;;15.80;60.00;;;;;;5079229;28;20441;-81
2022/11/28 05:15:21;;;;;;;4.53;4.13;;;15.70;60.00;;;;;;5091181;28;20476;-81
2022/11/28 05:17:49;;;;;;;4.13;3.73;;;15.80;60.00;;;;;;5091344;28;20466;-81
2022/11/28 05:20:17;;;;;;;4.43;4.03;;;15.80;60.00;;;;;;5092415;28;20450;-81
2022/11/28 05:22:46;;;;;;;6.50;4.30;;;15.80;60.00;;;;;;5081625;28;20441;-81
2022/11/28 05:25:14;;;;;;;5.10;4.07;;;15.80;59.90;;;;;;5074465;28;20437;-81
2022/11/28 05:27:42;;;;;;;4.20;3.73;;;15.80;60.00;;;;;;5072976;28;20483;-81
2022/11/28 05:30:11;;;;;;;4.13;3.77;;;15.80;60.00;;;;;;5074893;28;20454;-81
2022/11/28 05:32:39;;;;;;;5.00;4.33;;;15.80;60.00;;;;;;5074888;28;20455;-81
2022/11/28 05:35:08;;;;;;;4.27;3.97;;;15.80;60.00;;;;;;5074718;28;20473;-81
2022/11/28 05:37:36;;;;;;;4.27;3.90;;;15.80;59.80;;;;;;5071446;28;20472;-81
2022/11/28 05:40:06;;;;;;;4.33;4.00;;;15.80;59.90;;;;;;5070932;28;20445;-81
2022/11/28 05:42:35;;;;;;;4.40;4.00;;;15.80;59.90;;;;;;5073213;28;20461;-81
2022/11/28 05:45:03;;;;;;;5.03;4.53;;;15.80;59.80;;;;;;5066069;28;20457;-81
2022/11/28 05:47:31;;;;;;;6.50;4.17;;;15.80;59.90;;;;;;5074204;28;20469;-81
2022/11/28 05:50:00;;;;;;;4.90;3.80;;;15.80;59.90;;;;;;5075150;28;20450;-80
2022/11/28 05:52:31;;;;;;;4.40;4.00;;;15.80;59.80;;;;;;5067689;28;20450;-82
2022/11/28 05:55:00;;;;;;;4.30;3.90;;;15.80;59.80;;;;;;5069460;28;20541;-82
2022/11/28 05:57:31;;;;;;;5.50;3.97;;;15.80;59.80;;;;;;5072708;28;20492;-81
2022/11/28 05:59:59;;;;;;;4.50;4.10;;;15.80;59.80;;;;;;5063019;28;20457;-81
2022/11/28 06:02:27;;;;;;;4.27;3.97;;;15.80;59.80;;;;;;5067591;28;20456;-81
2022/11/28 06:04:56;;;;;;;4.47;4.10;;;15.80;59.80;;;;;;5074521;28;20525;-81
2022/11/28 06:07:23;;;;;;;4.00;3.70;;;15.80;59.80;;;;;;5074744;28;20476;-81
2022/11/28 06:09:51;;;;;;;3.80;3.50;;;15.80;59.70;;;;;;5075451;28;20511;-82
2022/11/28 06:12:19;;;;;;;4.40;3.97;;;15.80;59.70;;;;;;5070636;28;20720;-82
2022/11/28 06:14:48;;;;;;;4.10;3.70;;;15.80;59.70;;;;;;5070308;28;20475;-82
2022/11/28 06:17:16;;;;;;;3.90;3.60;;;15.80;59.60;;;;;;5074305;28;20473;-82
2022/11/28 06:19:44;;;;;;;3.80;3.50;;;15.80;59.70;;;;;;5073589;28;20452;-80
2022/11/28 06:22:12;;;;;;;4.17;3.70;;;15.80;59.80;;;;;;5074284;28;20450;-81
2022/11/28 06:24:40;;;;;;;4.20;3.80;;;15.70;59.80;;;;;;5065150;28;20466;-81
2022/11/28 06:27:08;;;;;;;4.57;4.13;;;15.70;59.80;;;;;;5074865;28;20492;-81
2022/11/28 06:29:36;;;;;;;4.13;3.67;;;15.70;59.60;;;;;;5066547;28;20441;-81
2022/11/28 06:32:06;;;;;;;3.97;3.67;;;15.70;59.60;;;;;;5072780;28;20452;-81
2022/11/28 06:34:34;;;;;;;3.90;3.60;;;15.70;59.80;;;;;;5074083;28;20466;-81
2022/11/28 06:37:03;;;;;;;4.40;4.00;;;15.70;59.90;;;;;;5066543;28;20484;-81
2022/11/28 06:39:30;;;;;;;4.00;3.70;;;15.70;59.90;;;;;;5064947;28;21002;-82
2022/11/28 06:41:58;;;;;;;3.83;3.53;;;15.70;59.80;;;;;;5068011;28;20449;-82
2022/11/28 06:44:26;;;;;;;4.30;3.33;;;15.60;59.90;;;;;;5066811;28;20458;-81
2022/11/28 06:46:54;;;;;;;4.23;3.83;;;15.70;59.80;;;;;;5061389;28;20524;-81
2022/11/28 06:49:23;;;;;;;3.73;3.43;;;15.70;59.90;;;;;;5071073;28;20476;-80
2022/11/28 06:51:51;;;;;;;4.23;3.80;;;15.70;59.90;;;;;;5056947;28;20458;-81
2022/11/28 06:54:19;;;;;;;4.43;4.03;;;15.70;59.80;;;;;;5064405;28;20478;-81
2022/11/28 06:56:47;;;;;;;3.80;3.50;;;15.60;59.70;;;;;;5071745;28;20469;-81
2022/11/28 06:59:15;;;;;;;4.20;3.90;;;15.60;59.80;;;;;;5073697;28;20477;-81
2022/11/28 07:01:42;;;;;;;4.63;3.73;;;15.60;59.90;;;;;;5070157;28;20487;-81
2022/11/28 07:04:10;;;;;;;3.90;3.60;;;15.60;59.80;;;;;;5073182;28;20445;-81
2022/11/28 07:06:40;;;;;;;4.77;4.27;;;15.60;59.80;;;;;;5069508;28;20538;-81
2022/11/28 07:09:07;;;;;;;5.10;4.50;;;15.60;59.90;;;;;;5073138;28;20446;-81
2022/11/28 07:11:36;;;;;;;4.13;3.73;;;15.60;59.70;;;;;;5065608;28;20454;-80
2022/11/28 07:14:04;;;;;;;4.00;3.70;;;15.60;60.00;;;;;;5073880;28;20458;-82
2022/11/28 07:16:33;;;;;;;3.90;3.60;;;15.60;59.80;;;;;;5073094;28;20471;-80
2022/11/28 07:19:01;;;;;;;4.20;3.90;;;15.60;59.90;;;;;;5072206;28;20449;-80
2022/11/28 07:21:29;;;;;;;4.13;3.83;;;15.60;59.80;;;;;;5076725;28;20453;-79
2022/11/28 07:23:59;;;;;;;4.30;3.90;;;15.60;59.80;;;;;;5071898;28;20937;-81
2022/11/28 07:26:27;;;;;;;4.87;4.37;;;15.60;59.70;;;;;;5073172;28;20466;-79
2022/11/28 07:28:57;;;;;;;4.73;4.33;;;15.60;59.80;;;;;;5069891;28;20450;-80
2022/11/28 07:31:25;;;;;;;5.97;4.30;;;15.60;59.80;;;;;;5077543;28;20513;-80
2022/11/28 07:33:53;;;;;;;4.90;3.90;;;15.60;59.70;;;;;;5068602;28;20458;-80
2022/11/28 07:36:23;;;;;;;4.50;4.10;;;15.60;59.90;;;;;;5073485;28;20477;-81
2022/11/28 07:38:53;;;;;;;4.20;3.90;;;15.60;59.70;;;;;;5070118;28;20450;-80
2022/11/28 07:41:22;;;;;;;4.27;3.90;;;15.60;60.00;;;;;;5077740;28;20445;-81
2022/11/28 07:43:54;;;;;;;4.07;3.67;;;15.60;59.70;;;;;;5073422;28;20528;-81
2022/11/28 07:46:22;;;;;;;5.23;4.30;;;15.60;60.00;;;;;;5079044;28;20493;-81
2022/11/28 07:48:50;;;;;;;4.30;3.90;;;15.60;59.80;;;;;;5076113;28;20476;-79
2022/11/28 07:51:19;;;;;;;5.40;4.30;;;15.60;59.80;;;;;;5071684;28;20457;-81
2022/11/28 07:53:47;;;;;;;5.00;4.30;;;15.60;59.70;;;;;;5078351;28;20450;-81
2022/11/28 07:56:17;;;;;;;4.30;3.90;;;15.60;59.80;;;;;;5078537;28;20480;-81
2022/11/28 07:58:47;;;;;;;5.70;3.90;;;15.60;59.90;;;;;;5078884;28;20449;-80
2022/11/28 08:01:15;;;;;;;4.83;4.03;;;15.60;59.90;;;;;;5072073;28;20454;-79
2022/11/28 08:03:44;;;;;;;5.77;4.43;;;15.60;59.90;;;;;;5082043;28;20445;-80
2022/11/28 08:06:12;;;;;;;4.80;4.30;;;15.60;60.00;;;;;;5070866;28;20466;-81
2022/11/28 08:08:40;;;;;;;4.40;4.10;;;15.60;60.00;;;;;;5080661;28;20450;-80
2022/11/28 08:11:08;;;;;;;5.30;4.33;;;15.60;59.90;;;;;;5081026;28;20457;-80
2022/11/28 08:13:38;;;;;;;5.67;4.43;;;15.60;59.80;;;;;;5080966;28;20457;-80
2022/11/28 08:16:08;;;;;;;4.47;4.17;;;15.60;59.90;;;;;;5072427;28;20481;-81
2022/11/28 08:18:36;;;;;;;5.27;4.77;;;15.60;60.00;;;;;;5080931;28;20450;-81
2022/11/28 08:21:05;;;;;;;4.17;3.77;;;15.60;60.00;;;;;;5079912;28;20466;-80
2022/11/28 08:23:33;;;;;;;4.30;3.97;;;15.60;60.00;;;;;;5078985;28;20446;-80
2022/11/28 08:26:02;;;;;;;4.80;3.97;;;15.60;60.00;;;;;;5079859;28;20480;-81
2022/11/28 08:28:30;;;;;;;4.60;4.20;;;15.60;60.00;;;;;;5073015;28;20453;-80
2022/11/28 08:31:00;;;;;;;4.43;4.03;;;15.60;60.00;;;;;;5079551;28;20434;-80
2022/11/28 08:33:29;;;;;;;5.10;3.93;;;15.70;60.00;;;;;;5078872;28;20457;-80
2022/11/28 08:35:57;;;;;;;4.90;4.40;;;15.70;60.10;;;;;;5076845;28;20478;-80
2022/11/28 08:38:25;;;;;;;4.90;4.50;;;15.70;60.00;;;;;;5080891;28;20452;-79
2022/11/28 08:41:00;;;;;;;3.90;3.60;;;15.70;60.00;;;;;;5079077;28;20449;-80
2022/11/28 08:43:28;;;;;;;4.07;3.77;;;15.70;60.00;;;;;;5076432;28;20461;-80
2022/11/28 08:45:56;;;;;;;4.30;4.00;;;15.70;60.20;;;;;;5069911;28;20477;-81
2022/11/28 08:48:24;;;;;;;4.47;4.07;;;15.70;60.20;;;;;;5074196;28;20487;-81
2022/11/28 08:50:53;;;;;;;4.30;4.00;;;15.70;60.20;;;;;;5077471;28;20461;-81
2022/11/28 08:53:22;;;;;;;5.20;3.80;;;15.70;60.10;;;;;;5075102;28;20450;-80
2022/11/28 08:55:50;;;;;;;4.40;3.83;;;15.70;60.00;;;;;;5069926;28;20470;-79
2022/11/28 08:58:18;;;;;;;4.50;4.10;;;15.70;60.00;;;;;;5067443;28;20448;-81
2022/11/28 09:00:46;;;;;;;4.33;3.97;;;15.70;60.00;;;;;;5073944;28;20457;-80
2022/11/28 09:03:15;;;;;;;4.87;4.47;;;15.70;60.20;;;;;;5072638;28;20828;-79
2022/11/28 09:05:45;;;;;;;4.90;4.50;;;15.70;60.20;;;;;;5067819;28;20442;-80
2022/11/28 09:08:14;;;;;;;5.37;4.87;;;15.70;60.20;;;;;;5071668;28;20446;-78
2022/11/28 09:10:43;;;;;;;4.60;4.20;;;15.70;60.10;;;;;;5073330;28;20465;-81
2022/11/28 09:13:11;;;;;;;4.13;3.73;;;15.70;60.20;;;;;;5074640;28;20446;-81
2022/11/28 09:15:39;;;;;;;4.30;4.00;;;15.70;60.30;;;;;;5074379;28;20461;-80
2022/11/28 09:18:07;;;;;;;4.93;3.97;;;15.70;60.20;;;;;;5074007;28;20449;-80
2022/11/28 09:20:35;;;;;;;8.47;3.90;;;15.70;60.30;;;;;;5074928;28;20449;-80
2022/11/28 09:23:03;;;;;;;4.23;3.83;;;15.80;60.30;;;;;;5073148;28;20458;-80
2022/11/28 09:25:34;;;;;;;4.70;4.10;;;15.80;60.20;;;;;;5072576;28;20507;-80
2022/11/28 09:28:02;;;;;;;6.30;4.27;;;15.80;60.20;;;;;;5073194;28;20470;-82
2022/11/28 09:30:30;;;;;;;6.00;3.80;;;15.80;60.30;;;;;;5073543;28;20498;-80
2022/11/28 09:32:58;;;;;;;4.57;4.17;;;15.80;60.30;;;;;;5072887;28;20453;-81
2022/11/28 09:35:26;;;;;;;4.80;4.00;;;15.80;60.30;;;;;;5072217;28;20461;-81
2022/11/28 09:37:53;;;;;;;4.10;3.80;;;15.80;60.20;;;;;;5073322;28;20573;-81
2022/11/28 09:40:23;;;;;;;4.00;3.70;;;15.80;60.30;;;;;;5072032;28;20454;-81
2022/11/28 09:42:53;;;;;;;4.60;4.20;;;15.80;60.20;;;;;;5073235;28;20460;-80
2022/11/28 09:45:22;;;;;;;5.20;4.20;;;15.80;60.30;;;;;;5071220;28;20442;-81
2022/11/28 09:47:51;;;;;;;4.00;3.70;;;15.80;60.20;;;;;;5073519;28;20465;-81
2022/11/28 09:50:21;;;;;;;4.07;3.70;;;15.90;60.40;;;;;;5072052;28;20473;-81
2022/11/28 09:52:52;;;;;;;4.47;3.73;;;15.90;60.20;;;;;;5073317;28;20457;-80
2022/11/28 09:55:24;;;;;;;4.60;4.07;;;15.90;60.20;;;;;;5072823;28;20511;-80
2022/11/28 09:57:53;;;;;;;6.03;4.10;;;15.90;60.10;;;;;;5072695;28;20485;-79
2022/11/28 10:00:23;;;;;;;3.87;3.60;;;15.90;60.20;;;;;;5072958;28;20449;-79
2022/11/28 10:03:08;;;;;;;5.33;4.17;;;16.00;60.20;;;;;;5073376;28;20472;-80
2022/11/28 10:05:37;;;;;;;4.43;4.03;;;15.90;60.70;;;;;;5068965;28;20454;-80
2022/11/28 10:08:13;;;;;;;4.23;3.83;;;15.90;60.30;;;;;;5076186;28;20449;-81
2022/11/28 10:10:47;;;;;;;4.40;4.00;;;15.90;60.10;;;;;;5076567;28;20453;-81
2022/11/28 10:13:19;;;;;;;3.90;3.60;;;15.90;60.10;;;;;;5073898;28;20476;-80
2022/11/28 10:15:51;;;;;;;4.70;4.20;;;16.00;60.30;;;;;;5074182;28;20450;-80
2022/11/28 10:18:28;;;;;;;4.73;4.03;;;15.90;60.10;;;;;;5073600;28;20450;-79
2022/11/28 10:20:57;;;;;;;4.27;3.87;;;15.90;60.20;;;;;;5071907;28;20535;-80
2022/11/28 10:23:28;;;;;;;4.37;4.00;;;16.00;60.20;;;;;;5072516;28;20453;-80
2022/11/28 10:25:57;;;;;;;4.63;4.10;;;16.00;60.30;;;;;;5074998;28;20473;-79
2022/11/28 10:28:28;;;;;;;5.07;4.57;;;16.00;60.20;;;;;;5074397;28;20461;-80
2022/11/28 10:30:59;;;;;;;5.23;3.90;;;16.00;60.30;;;;;;5074450;28;20461;-79
2022/11/28 10:33:29;;;;;;;4.07;3.73;;;16.00;60.20;;;;;;5077583;28;20472;-80
2022/11/28 10:35:58;;;;;;;4.30;3.90;;;16.00;60.00;;;;;;5073930;28;20477;-78
2022/11/28 10:38:27;;;;;;;4.77;4.37;;;16.00;60.00;;;;;;5078284;28;20442;-81
2022/11/28 10:40:58;;;;;;;4.00;3.70;;;16.00;60.10;;;;;;5076283;28;20454;-81
2022/11/28 10:43:31;;;;;;;4.50;3.97;;;16.10;60.10;;;;;;5075278;28;20453;-82
2022/11/28 10:46:05;;;;;;;4.17;3.87;;;16.00;60.10;;;;;;5074488;28;20477;-80
2022/11/28 10:48:38;;;;;;;4.53;4.13;;;16.10;60.20;;;;;;5083138;28;20479;-81
2022/11/28 10:51:19;;;;;;;4.70;4.20;;;16.10;60.00;;;;;;5077879;28;20461;-81
2022/11/28 10:53:51;;;;;;;5.63;4.17;;;16.10;60.00;;;;;;5074610;28;20449;-81
2022/11/28 10:56:25;;;;;;;5.40;4.33;;;16.10;60.20;;;;;;5080342;28;20469;-81
2022/11/28 10:58:57;;;;;;;5.23;3.90;;;16.10;60.00;;;;;;5080005;28;20447;-82
2022/11/28 11:01:28;;;;;;;4.13;3.70;;;16.10;60.30;;;;;;5074424;28;20499;-81
2022/11/28 11:03:56;;;;;;;8.20;4.77;;;16.20;60.20;;;;;;5079638;28;20445;-81
2022/11/28 11:06:25;;;;;;;5.67;4.73;;;16.20;60.20;;;;;;5077025;28;20460;-81
2022/11/28 11:09:08;;;;;;;6.17;4.93;;;16.20;60.10;;;;;;5077255;28;20449;-81
2022/11/28 11:11:49;;;;;;;5.97;4.67;;;16.20;60.10;;;;;;5077618;28;20454;-82
2022/11/28 11:14:19;;;;;;;6.13;4.93;;;16.20;60.10;;;;;;5083572;28;20461;-80
2022/11/28 11:16:48;;;;;;;6.47;4.80;;;16.20;60.10;;;;;;5077800;28;20994;-82
2022/11/28 11:19:25;;;;;;;5.23;4.73;;;16.20;60.00;;;;;;5075148;28;20454;-81
2022/11/28 11:22:02;;;;;;;8.30;4.70;;;16.20;60.20;;;;;;5078847;28;20464;-82
2022/11/28 11:24:30;;;;;;;4.97;4.50;;;16.20;60.20;;;;;;5077547;28;20459;-82
2022/11/28 11:27:04;;;;;;;7.00;5.50;;;16.20;60.20;;;;;;5077871;28;20470;-82
2022/11/28 11:29:35;;;;;;;6.13;5.17;;;16.20;60.20;;;;;;5078902;28;20448;-82
2022/11/28 11:32:05;;;;;;;6.80;5.57;;;16.20;60.20;;;;;;5074719;28;20445;-82
2022/11/28 11:34:36;;;;;;;7.03;5.97;;;16.20;60.30;;;;;;5078075;28;20454;-83
2022/11/28 11:37:20;;;;;;;6.70;5.10;;;16.20;60.20;;;;;;5077458;28;20488;-81
2022/11/28 11:39:49;;;;;;;5.57;5.00;;;16.30;60.20;;;;;;5074505;28;20449;-82
2022/11/28 11:42:20;;;;;;;8.30;6.40;;;16.30;60.30;;;;;;5078375;28;20460;-81
2022/11/28 11:44:49;;;;;;;7.23;5.30;;;16.30;60.30;;;;;;5077719;28;20464;-80
2022/11/28 11:47:17;;;;;;;7.17;5.47;;;16.30;60.40;;;;;;5075601;28;20470;-80
2022/11/28 11:49:46;;;;;;;5.60;5.10;;;16.30;60.50;;;;;;5076691;28;20445;-78
2022/11/28 11:52:17;;;;;;;8.20;6.00;;;16.30;60.40;;;;;;5077527;28;20536;-79
2022/11/28 11:55:01;;;;;;;6.17;5.57;;;16.30;60.60;;;;;;5080495;28;20454;-80
2022/11/28 11:57:32;;;;;;;6.63;5.40;;;16.30;60.40;;;;;;5071381;28;20477;-81
2022/11/28 12:00:06;;;;;;;10.03;4.90;;;16.20;60.30;;;;;;5075569;28;20457;-80
2022/11/28 12:02:36;;;;;;;9.37;6.17;;;16.30;60.30;;;;;;5084452;28;20468;-80
2022/11/28 12:05:05;;;;;;;6.27;5.37;;;16.30;60.30;;;;;;5077988;28;20544;-80
2022/11/28 12:07:38;;;;;;;9.33;5.80;;;16.30;60.20;;;;;;5077713;28;20496;-79
2022/11/28 12:10:09;;;;;;;7.27;6.30;;;16.30;60.00;;;;;;5075510;28;20445;-80
2022/11/28 12:12:39;;;;;;;9.30;6.50;;;16.30;60.20;;;;;;5077084;28;20472;-80
2022/11/28 12:15:16;;;;;;;7.60;6.60;;;16.30;60.10;;;;;;5075167;28;20458;-81
2022/11/28 12:17:48;;;;;;;8.03;6.33;;;16.30;60.00;;;;;;5077628;28;20480;-81
2022/11/28 12:20:29;;;;;;;7.70;6.20;;;16.30;60.20;;;;;;5075891;28;20576;-81
2022/11/28 12:23:01;;;;;;;7.00;6.30;;;16.30;60.00;;;;;;5076684;28;20461;-81
2022/11/28 12:25:32;;;;;;;7.87;6.30;;;16.20;60.00;;;;;;5078413;28;20539;-80
2022/11/28 12:28:04;;;;;;;9.40;6.27;;;16.30;60.00;;;;;;5077236;28;20472;-81
2022/11/28 12:30:40;;;;;;;6.17;5.53;;;16.20;59.90;;;;;;5074950;28;20452;-81
2022/11/28 12:33:27;;;;;;;8.00;6.33;;;16.30;59.80;;;;;;5076216;28;20526;-81
2022/11/28 12:36:04;;;;;;;8.47;6.10;;;16.30;59.90;;;;;;5075227;28;20474;-81
2022/11/28 12:38:40;;;;;;;6.90;5.50;;;16.30;59.80;;;;;;5076524;28;20469;-81
2022/11/28 12:41:20;;;;;;;9.10;6.30;;;16.30;59.90;;;;;;5080441;28;20453;-81
2022/11/28 12:44:00;;;;;;;8.80;5.83;;;16.30;59.50;;;;;;5073653;28;20453;-81
2022/11/28 12:46:33;;;;;;;6.90;6.13;;;16.30;59.70;;;;;;5077609;28;20469;-81
2022/11/28 12:49:08;;;;;;;8.03;6.17;;;16.30;59.70;;;;;;5079718;28;20446;-80
2022/11/28 12:51:40;;;;;;;7.00;5.77;;;16.20;59.70;;;;;;5082200;28;20461;-81
2022/11/28 12:54:23;;;;;;;6.40;5.77;;;16.20;59.60;;;;;;5076023;28;20448;-81
2022/11/28 12:56:54;;;;;;;6.80;6.10;;;16.20;59.70;;;;;;5073657;28;20469;-82
2022/11/28 12:59:25;;;;;;;7.23;6.33;;;16.20;59.70;;;;;;5079974;28;20478;-80
2022/11/28 13:02:02;;;;;;;5.87;5.30;;;16.20;59.60;;;;;;5072787;28;20517;-79